sensor_id;sensor_type;location;lat;lon;timestamp;pressure;altitude;pressure_sealevel;temperature;humidity
71151;BME280;59071;42.138;24.768;2024-02-16T00:01:57;100262.50;;;8.34;52.33
71151;BME280;59071;42.138;24.768;2024-02-16T00:04:22;100261.34;;;8.06;52.62
71151;BME280;59071;42.138;24.768;2024-02-16T00:06:48;100269.03;;;8.23;52.28
71151;BME280;59071;42.138;24.768;2024-02-16T00:09:14;100258.72;;;8.06;52.73
71151;BME280;59071;42.138;24.768;2024-02-16T00:11:39;100271.66;;;7.61;54.17
71151;BME280;59071;42.138;24.768;2024-02-16T00:14:05;100271.81;;;7.68;53.64
71151;BME280;59071;42.138;24.768;2024-02-16T00:16:30;100272.19;;;7.88;53.31
71151;BME280;59071;42.138;24.768;2024-02-16T00:18:56;100266.28;;;7.77;53.60
71151;BME280;59071;42.138;24.768;2024-02-16T00:21:21;100257.31;;;7.78;53.51
71151;BME280;59071;42.138;24.768;2024-02-16T00:23:46;100261.03;;;8.00;53.08
71151;BME280;59071;42.138;24.768;2024-02-16T00:26:12;100267.44;;;7.75;53.72
71151;BME280;59071;42.138;24.768;2024-02-16T00:28:37;100268.13;;;7.77;53.57
71151;BME280;59071;42.138;24.768;2024-02-16T00:31:02;100265.97;;;7.72;53.33
71151;BME280;59071;42.138;24.768;2024-02-16T00:33:28;100264.34;;;7.71;53.70
71151;BME280;59071;42.138;24.768;2024-02-16T00:35:54;100257.53;;;7.69;53.49
71151;BME280;59071;42.138;24.768;2024-02-16T00:38:19;100258.69;;;7.74;53.59
71151;BME280;59071;42.138;24.768;2024-02-16T00:40:45;100257.44;;;7.93;52.97
71151;BME280;59071;42.138;24.768;2024-02-16T00:43:10;100260.94;;;7.86;52.98
71151;BME280;59071;42.138;24.768;2024-02-16T00:45:36;100263.44;;;7.87;53.29
71151;BME280;59071;42.138;24.768;2024-02-16T00:48:02;100247.69;;;7.86;52.89
71151;BME280;59071;42.138;24.768;2024-02-16T00:50:28;100254.56;;;8.03;52.61
71151;BME280;59071;42.138;24.768;2024-02-16T00:52:54;100252.34;;;7.83;53.05
71151;BME280;59071;42.138;24.768;2024-02-16T00:55:19;100260.50;;;8.05;52.44
71151;BME280;59071;42.138;24.768;2024-02-16T00:57:45;100259.28;;;8.16;51.80
71151;BME280;59071;42.138;24.768;2024-02-16T01:00:11;100245.88;;;7.86;52.63
71151;BME280;59071;42.138;24.768;2024-02-16T01:02:36;100254.69;;;7.78;52.61
71151;BME280;59071;42.138;24.768;2024-02-16T01:05:02;100248.09;;;7.27;53.97
71151;BME280;59071;42.138;24.768;2024-02-16T01:07:28;100250.41;;;7.77;53.54
71151;BME280;59071;42.138;24.768;2024-02-16T01:09:53;100249.25;;;8.03;51.97
71151;BME280;59071;42.138;24.768;2024-02-16T01:12:19;100253.44;;;7.97;52.49
71151;BME280;59071;42.138;24.768;2024-02-16T01:14:45;100254.75;;;8.01;51.86
71151;BME280;59071;42.138;24.768;2024-02-16T01:17:10;100257.75;;;7.98;52.53
71151;BME280;59071;42.138;24.768;2024-02-16T01:19:36;100257.53;;;8.31;51.55
71151;BME280;59071;42.138;24.768;2024-02-16T01:22:01;100255.34;;;8.12;51.93
71151;BME280;59071;42.138;24.768;2024-02-16T01:24:26;100251.94;;;8.26;51.99
71151;BME280;59071;42.138;24.768;2024-02-16T01:26:52;100256.56;;;8.01;52.54
71151;BME280;59071;42.138;24.768;2024-02-16T01:29:17;100255.66;;;7.86;52.29
71151;BME280;59071;42.138;24.768;2024-02-16T01:31:42;100253.66;;;7.88;52.29
71151;BME280;59071;42.138;24.768;2024-02-16T01:34:08;100264.63;;;7.85;52.94
71151;BME280;59071;42.138;24.768;2024-02-16T01:36:33;100254.03;;;7.76;52.84
71151;BME280;59071;42.138;24.768;2024-02-16T01:38:58;100244.09;;;7.78;52.91
71151;BME280;59071;42.138;24.768;2024-02-16T01:41:24;100244.44;;;7.75;52.64
71151;BME280;59071;42.138;24.768;2024-02-16T01:43:52;100252.16;;;8.16;51.77
71151;BME280;59071;42.138;24.768;2024-02-16T01:46:18;100257.91;;;8.28;51.67
71151;BME280;59071;42.138;24.768;2024-02-16T01:48:44;100256.34;;;8.11;51.74
71151;BME280;59071;42.138;24.768;2024-02-16T01:51:09;100251.22;;;7.78;52.62
71151;BME280;59071;42.138;24.768;2024-02-16T01:53:35;100258.72;;;7.97;52.30
71151;BME280;59071;42.138;24.768;2024-02-16T01:56:02;100255.72;;;8.32;51.27
71151;BME280;59071;42.138;24.768;2024-02-16T01:58:28;100252.75;;;8.03;52.17
71151;BME280;59071;42.138;24.768;2024-02-16T02:00:53;100253.22;;;7.76;52.42
71151;BME280;59071;42.138;24.768;2024-02-16T02:03:19;100251.75;;;7.65;53.29
71151;BME280;59071;42.138;24.768;2024-02-16T02:05:45;100244.53;;;7.51;53.09
71151;BME280;59071;42.138;24.768;2024-02-16T02:08:12;100256.03;;;7.74;52.49
71151;BME280;59071;42.138;24.768;2024-02-16T02:10:37;100256.66;;;7.85;52.42
71151;BME280;59071;42.138;24.768;2024-02-16T02:13:03;100248.09;;;7.74;53.09
71151;BME280;59071;42.138;24.768;2024-02-16T02:15:28;100247.91;;;7.76;52.93
71151;BME280;59071;42.138;24.768;2024-02-16T02:17:53;100255.22;;;7.74;52.60
71151;BME280;59071;42.138;24.768;2024-02-16T02:20:19;100252.03;;;7.78;52.41
71151;BME280;59071;42.138;24.768;2024-02-16T02:22:44;100248.66;;;7.93;52.33
71151;BME280;59071;42.138;24.768;2024-02-16T02:25:10;100227.16;;;7.88;52.08
71151;BME280;59071;42.138;24.768;2024-02-16T02:27:37;100242.78;;;7.74;52.68
71151;BME280;59071;42.138;24.768;2024-02-16T02:30:04;100247.13;;;7.98;51.82
71151;BME280;59071;42.138;24.768;2024-02-16T02:32:30;100241.63;;;7.77;52.19
71151;BME280;59071;42.138;24.768;2024-02-16T02:34:55;100230.84;;;7.78;52.01
71151;BME280;59071;42.138;24.768;2024-02-16T02:37:21;100234.31;;;8.10;51.62
71151;BME280;59071;42.138;24.768;2024-02-16T02:39:46;100237.91;;;7.94;51.87
71151;BME280;59071;42.138;24.768;2024-02-16T02:42:12;100228.84;;;7.80;51.91
71151;BME280;59071;42.138;24.768;2024-02-16T02:44:38;100240.66;;;8.01;51.29
71151;BME280;59071;42.138;24.768;2024-02-16T02:47:03;100232.94;;;8.14;51.10
71151;BME280;59071;42.138;24.768;2024-02-16T02:49:29;100230.84;;;8.10;51.06
71151;BME280;59071;42.138;24.768;2024-02-16T02:51:54;100237.59;;;8.12;51.25
71151;BME280;59071;42.138;24.768;2024-02-16T02:54:19;100234.97;;;7.81;51.83
71151;BME280;59071;42.138;24.768;2024-02-16T02:56:45;100230.59;;;7.96;51.69
71151;BME280;59071;42.138;24.768;2024-02-16T02:59:10;100235.81;;;7.81;51.94
71151;BME280;59071;42.138;24.768;2024-02-16T03:01:36;100230.91;;;8.01;51.38
71151;BME280;59071;42.138;24.768;2024-02-16T03:04:02;100235.50;;;8.08;51.20
71151;BME280;59071;42.138;24.768;2024-02-16T03:06:27;100236.22;;;7.93;51.50
71151;BME280;59071;42.138;24.768;2024-02-16T03:08:53;100232.78;;;7.53;52.12
71151;BME280;59071;42.138;24.768;2024-02-16T03:11:18;100230.72;;;7.16;53.42
71151;BME280;59071;42.138;24.768;2024-02-16T03:13:43;100248.75;;;7.29;53.59
71151;BME280;59071;42.138;24.768;2024-02-16T03:16:09;100251.56;;;7.35;53.63
71151;BME280;59071;42.138;24.768;2024-02-16T03:18:34;100245.97;;;7.22;53.83
71151;BME280;59071;42.138;24.768;2024-02-16T03:21:00;100237.72;;;7.09;54.17
71151;BME280;59071;42.138;24.768;2024-02-16T03:23:25;100233.19;;;7.34;53.25
71151;BME280;59071;42.138;24.768;2024-02-16T03:25:51;100239.53;;;7.00;54.06
71151;BME280;59071;42.138;24.768;2024-02-16T03:28:16;100235.06;;;7.09;53.24
71151;BME280;59071;42.138;24.768;2024-02-16T03:30:43;100245.13;;;7.13;53.70
71151;BME280;59071;42.138;24.768;2024-02-16T03:33:09;100251.19;;;7.47;52.42
71151;BME280;59071;42.138;24.768;2024-02-16T03:35:35;100246.31;;;7.11;53.00
71151;BME280;59071;42.138;24.768;2024-02-16T03:38:01;100246.97;;;7.13;52.93
71151;BME280;59071;42.138;24.768;2024-02-16T03:40:28;100250.91;;;7.25;52.99
71151;BME280;59071;42.138;24.768;2024-02-16T03:42:53;100245.41;;;7.35;52.13
71151;BME280;59071;42.138;24.768;2024-02-16T03:45:19;100268.28;;;7.75;51.44
71151;BME280;59071;42.138;24.768;2024-02-16T03:47:44;100261.97;;;7.76;51.45
71151;BME280;59071;42.138;24.768;2024-02-16T03:50:10;100255.78;;;7.53;52.28
71151;BME280;59071;42.138;24.768;2024-02-16T03:52:36;100265.19;;;7.63;52.08
71151;BME280;59071;42.138;24.768;2024-02-16T03:55:02;100262.81;;;7.77;51.64
71151;BME280;59071;42.138;24.768;2024-02-16T03:57:30;100268.91;;;7.86;51.77
71151;BME280;59071;42.138;24.768;2024-02-16T03:59:56;100270.91;;;7.83;51.71
71151;BME280;59071;42.138;24.768;2024-02-16T04:02:21;100262.72;;;7.93;52.46
71151;BME280;59071;42.138;24.768;2024-02-16T04:04:47;100265.25;;;7.87;52.20
71151;BME280;59071;42.138;24.768;2024-02-16T04:07:12;100261.97;;;7.76;52.03
71151;BME280;59071;42.138;24.768;2024-02-16T04:09:37;100270.88;;;7.52;52.88
71151;BME280;59071;42.138;24.768;2024-02-16T04:12:03;100267.00;;;7.63;52.69
71151;BME280;59071;42.138;24.768;2024-02-16T04:14:29;100264.44;;;7.38;53.09
71151;BME280;59071;42.138;24.768;2024-02-16T04:16:55;100265.84;;;7.66;52.54
71151;BME280;59071;42.138;24.768;2024-02-16T04:19:24;100263.66;;;7.30;53.42
71151;BME280;59071;42.138;24.768;2024-02-16T04:21:49;100266.97;;;7.15;53.99
71151;BME280;59071;42.138;24.768;2024-02-16T04:24:14;100269.66;;;6.99;54.65
71151;BME280;59071;42.138;24.768;2024-02-16T04:26:40;100275.41;;;7.19;54.43
71151;BME280;59071;42.138;24.768;2024-02-16T04:29:05;100279.63;;;7.53;53.40
71151;BME280;59071;42.138;24.768;2024-02-16T04:31:30;100281.91;;;7.64;53.02
71151;BME280;59071;42.138;24.768;2024-02-16T04:33:56;100288.19;;;7.63;52.90
71151;BME280;59071;42.138;24.768;2024-02-16T04:36:21;100284.44;;;7.49;53.35
71151;BME280;59071;42.138;24.768;2024-02-16T04:38:47;100294.53;;;7.46;53.50
71151;BME280;59071;42.138;24.768;2024-02-16T04:41:12;100283.44;;;7.50;53.53
71151;BME280;59071;42.138;24.768;2024-02-16T04:43:38;100290.03;;;7.62;53.21
71151;BME280;59071;42.138;24.768;2024-02-16T04:46:04;100288.91;;;7.49;53.48
71151;BME280;59071;42.138;24.768;2024-02-16T04:48:29;100290.97;;;7.05;54.61
71151;BME280;59071;42.138;24.768;2024-02-16T04:50:56;100286.84;;;6.95;55.05
71151;BME280;59071;42.138;24.768;2024-02-16T04:53:21;100285.69;;;6.81;55.77
71151;BME280;59071;42.138;24.768;2024-02-16T04:55:47;100290.16;;;6.97;55.05
71151;BME280;59071;42.138;24.768;2024-02-16T04:58:12;100283.03;;;6.81;55.61
71151;BME280;59071;42.138;24.768;2024-02-16T05:00:38;100291.22;;;7.52;77.10
71151;BME280;59071;42.138;24.768;2024-02-16T05:03:03;100295.69;;;7.51;55.31
71151;BME280;59071;42.138;24.768;2024-02-16T05:05:29;100292.31;;;7.01;55.94
71151;BME280;59071;42.138;24.768;2024-02-16T05:07:56;100296.75;;;7.09;57.14
71151;BME280;59071;42.138;24.768;2024-02-16T05:10:21;100300.56;;;6.90;58.18
71151;BME280;59071;42.138;24.768;2024-02-16T05:12:46;100290.97;;;6.89;55.40
71151;BME280;59071;42.138;24.768;2024-02-16T05:15:12;100304.88;;;6.83;56.43
71151;BME280;59071;42.138;24.768;2024-02-16T05:17:42;100305.03;;;6.81;56.22
71151;BME280;59071;42.138;24.768;2024-02-16T05:20:12;100311.31;;;6.64;56.57
71151;BME280;59071;42.138;24.768;2024-02-16T05:22:44;100293.97;;;6.78;56.08
71151;BME280;59071;42.138;24.768;2024-02-16T05:25:11;100313.78;;;6.65;56.33
71151;BME280;59071;42.138;24.768;2024-02-16T05:27:37;100305.88;;;6.82;55.92
71151;BME280;59071;42.138;24.768;2024-02-16T05:30:03;100310.16;;;6.67;56.47
71151;BME280;59071;42.138;24.768;2024-02-16T05:32:29;100311.00;;;6.92;55.39
71151;BME280;59071;42.138;24.768;2024-02-16T05:34:54;100315.13;;;6.94;55.48
71151;BME280;59071;42.138;24.768;2024-02-16T05:37:20;100319.94;;;6.74;55.68
71151;BME280;59071;42.138;24.768;2024-02-16T05:39:47;100315.13;;;6.78;55.85
71151;BME280;59071;42.138;24.768;2024-02-16T05:42:34;100318.44;;;6.80;55.26
71151;BME280;59071;42.138;24.768;2024-02-16T05:45:00;100319.75;;;6.92;55.75
71151;BME280;59071;42.138;24.768;2024-02-16T05:47:25;100329.19;;;6.78;56.16
71151;BME280;59071;42.138;24.768;2024-02-16T05:49:51;100329.00;;;6.72;56.56
71151;BME280;59071;42.138;24.768;2024-02-16T05:52:16;100316.44;;;6.65;55.88
71151;BME280;59071;42.138;24.768;2024-02-16T05:54:46;100325.38;;;6.81;56.19
71151;BME280;59071;42.138;24.768;2024-02-16T05:57:12;100334.63;;;6.85;56.08
71151;BME280;59071;42.138;24.768;2024-02-16T05:59:38;100329.00;;;6.72;57.47
71151;BME280;59071;42.138;24.768;2024-02-16T06:02:04;100330.34;;;7.00;55.95
71151;BME280;59071;42.138;24.768;2024-02-16T06:04:31;100327.19;;;7.21;55.57
71151;BME280;59071;42.138;24.768;2024-02-16T06:06:56;100321.25;;;6.87;55.96
71151;BME280;59071;42.138;24.768;2024-02-16T06:09:21;100332.50;;;7.05;55.65
71151;BME280;59071;42.138;24.768;2024-02-16T06:11:47;100328.69;;;6.91;56.16
71151;BME280;59071;42.138;24.768;2024-02-16T06:14:13;100337.94;;;7.03;55.08
71151;BME280;59071;42.138;24.768;2024-02-16T06:16:40;100333.47;;;7.20;54.80
71151;BME280;59071;42.138;24.768;2024-02-16T06:19:07;100334.13;;;7.22;54.71
71151;BME280;59071;42.138;24.768;2024-02-16T06:21:34;100343.38;;;7.43;54.29
71151;BME280;59071;42.138;24.768;2024-02-16T06:23:59;100349.50;;;7.27;54.55
71151;BME280;59071;42.138;24.768;2024-02-16T06:26:24;100345.50;;;7.64;53.94
71151;BME280;59071;42.138;24.768;2024-02-16T06:28:50;100346.88;;;7.91;52.85
71151;BME280;59071;42.138;24.768;2024-02-16T06:31:15;100344.88;;;7.93;53.21
71151;BME280;59071;42.138;24.768;2024-02-16T06:33:40;100348.41;;;7.86;53.34
71151;BME280;59071;42.138;24.768;2024-02-16T06:36:06;100350.34;;;7.92;52.90
71151;BME280;59071;42.138;24.768;2024-02-16T06:38:32;100354.22;;;8.20;52.71
71151;BME280;59071;42.138;24.768;2024-02-16T06:40:57;100350.97;;;8.50;51.71
71151;BME280;59071;42.138;24.768;2024-02-16T06:43:23;100353.28;;;8.76;50.70
71151;BME280;59071;42.138;24.768;2024-02-16T06:45:48;100361.88;;;8.78;50.53
71151;BME280;59071;42.138;24.768;2024-02-16T06:48:13;100357.16;;;9.11;49.81
71151;BME280;59071;42.138;24.768;2024-02-16T06:50:39;100362.50;;;9.26;49.17
71151;BME280;59071;42.138;24.768;2024-02-16T06:53:04;100357.91;;;9.20;49.10
71151;BME280;59071;42.138;24.768;2024-02-16T06:55:29;100354.50;;;9.11;49.23
71151;BME280;59071;42.138;24.768;2024-02-16T06:57:55;100358.59;;;9.52;48.53
71151;BME280;59071;42.138;24.768;2024-02-16T07:00:21;100349.53;;;9.91;48.27
71151;BME280;59071;42.138;24.768;2024-02-16T07:02:46;100359.34;;;9.75;47.43
71151;BME280;59071;42.138;24.768;2024-02-16T07:05:12;100352.19;;;9.61;47.92
71151;BME280;59071;42.138;24.768;2024-02-16T07:07:37;100364.81;;;9.29;49.24
71151;BME280;59071;42.138;24.768;2024-02-16T07:10:03;100360.81;;;9.48;48.51
71151;BME280;59071;42.138;24.768;2024-02-16T07:12:30;100358.09;;;9.71;48.60
71151;BME280;59071;42.138;24.768;2024-02-16T07:14:55;100357.13;;;10.24;47.21
71151;BME280;59071;42.138;24.768;2024-02-16T07:17:21;100358.03;;;10.46;47.05
71151;BME280;59071;42.138;24.768;2024-02-16T07:19:46;100360.88;;;10.44;46.73
71151;BME280;59071;42.138;24.768;2024-02-16T07:22:12;100362.41;;;10.53;46.32
71151;BME280;59071;42.138;24.768;2024-02-16T07:24:37;100365.53;;;10.57;46.96
71151;BME280;59071;42.138;24.768;2024-02-16T07:27:03;100368.78;;;10.74;46.12
71151;BME280;59071;42.138;24.768;2024-02-16T07:29:28;100372.19;;;10.89;45.11
71151;BME280;59071;42.138;24.768;2024-02-16T07:31:54;100373.28;;;10.95;44.99
71151;BME280;59071;42.138;24.768;2024-02-16T07:34:21;100373.81;;;11.33;44.79
71151;BME280;59071;42.138;24.768;2024-02-16T07:36:46;100372.69;;;11.49;43.85
71151;BME280;59071;42.138;24.768;2024-02-16T07:39:11;100376.19;;;11.50;43.70
71151;BME280;59071;42.138;24.768;2024-02-16T07:41:37;100378.31;;;11.89;43.36
71151;BME280;59071;42.138;24.768;2024-02-16T07:44:04;100368.31;;;12.46;42.12
71151;BME280;59071;42.138;24.768;2024-02-16T07:46:29;100364.44;;;12.49;41.71
71151;BME280;59071;42.138;24.768;2024-02-16T07:48:54;100377.88;;;12.89;41.17
71151;BME280;59071;42.138;24.768;2024-02-16T07:51:20;100371.09;;;13.00;40.23
71151;BME280;59071;42.138;24.768;2024-02-16T07:53:45;100376.00;;;12.83;40.94
71151;BME280;59071;42.138;24.768;2024-02-16T07:56:12;100374.19;;;13.03;40.46
71151;BME280;59071;42.138;24.768;2024-02-16T07:58:37;100378.09;;;13.01;40.36
71151;BME280;59071;42.138;24.768;2024-02-16T08:01:02;100371.94;;;13.20;39.94
71151;BME280;59071;42.138;24.768;2024-02-16T08:03:28;100369.03;;;13.15;40.12
71151;BME280;59071;42.138;24.768;2024-02-16T08:05:55;100365.34;;;13.16;39.84
71151;BME280;59071;42.138;24.768;2024-02-16T08:08:22;100360.44;;;13.60;38.24
71151;BME280;59071;42.138;24.768;2024-02-16T08:10:48;100359.06;;;14.09;38.95
71151;BME280;59071;42.138;24.768;2024-02-16T08:13:13;100369.66;;;14.36;37.86
71151;BME280;59071;42.138;24.768;2024-02-16T08:15:39;100369.97;;;14.66;36.60
71151;BME280;59071;42.138;24.768;2024-02-16T08:18:04;100371.25;;;14.89;36.43
71151;BME280;59071;42.138;24.768;2024-02-16T08:20:30;100371.59;;;14.67;36.43
71151;BME280;59071;42.138;24.768;2024-02-16T08:22:56;100374.91;;;14.62;36.09
71151;BME280;59071;42.138;24.768;2024-02-16T08:25:21;100367.63;;;14.76;36.19
71151;BME280;59071;42.138;24.768;2024-02-16T08:27:48;100375.13;;;14.61;36.07
71151;BME280;59071;42.138;24.768;2024-02-16T08:30:14;100371.19;;;14.12;37.14
71151;BME280;59071;42.138;24.768;2024-02-16T08:32:40;100375.25;;;13.36;37.91
71151;BME280;59071;42.138;24.768;2024-02-16T08:35:05;100367.81;;;13.64;37.90
71151;BME280;59071;42.138;24.768;2024-02-16T08:37:31;100368.78;;;13.97;37.16
71151;BME280;59071;42.138;24.768;2024-02-16T08:39:57;100378.38;;;14.24;37.17
71151;BME280;59071;42.138;24.768;2024-02-16T08:42:22;100377.47;;;13.79;37.83
71151;BME280;59071;42.138;24.768;2024-02-16T08:44:49;100375.34;;;14.07;36.96
71151;BME280;59071;42.138;24.768;2024-02-16T08:47:17;100376.75;;;14.17;37.12
71151;BME280;59071;42.138;24.768;2024-02-16T08:49:42;100384.84;;;13.83;37.48
71151;BME280;59071;42.138;24.768;2024-02-16T08:52:07;100380.56;;;13.82;37.74
71151;BME280;59071;42.138;24.768;2024-02-16T08:54:33;100376.88;;;13.63;38.21
71151;BME280;59071;42.138;24.768;2024-02-16T08:56:59;100382.22;;;13.17;39.27
71151;BME280;59071;42.138;24.768;2024-02-16T08:59:24;100378.31;;;13.13;39.54
71151;BME280;59071;42.138;24.768;2024-02-16T09:01:50;100383.88;;;13.58;39.03
71151;BME280;59071;42.138;24.768;2024-02-16T09:04:15;100380.97;;;13.73;38.68
71151;BME280;59071;42.138;24.768;2024-02-16T09:06:41;100377.28;;;13.67;39.30
71151;BME280;59071;42.138;24.768;2024-02-16T09:09:07;100377.72;;;13.37;39.94
71151;BME280;59071;42.138;24.768;2024-02-16T09:11:33;100372.47;;;12.69;40.59
71151;BME280;59071;42.138;24.768;2024-02-16T09:13:59;100384.41;;;12.73;40.91
71151;BME280;59071;42.138;24.768;2024-02-16T09:16:24;100384.06;;;13.16;41.18
71151;BME280;59071;42.138;24.768;2024-02-16T09:18:49;100385.69;;;13.10;40.61
71151;BME280;59071;42.138;24.768;2024-02-16T09:21:15;100383.84;;;13.24;40.48
71151;BME280;59071;42.138;24.768;2024-02-16T09:23:40;100382.03;;;13.38;40.42
71151;BME280;59071;42.138;24.768;2024-02-16T09:26:06;100372.44;;;14.09;39.95
71151;BME280;59071;42.138;24.768;2024-02-16T09:28:32;100369.41;;;13.92;39.07
71151;BME280;59071;42.138;24.768;2024-02-16T09:30:58;100368.06;;;14.28;38.73
71151;BME280;59071;42.138;24.768;2024-02-16T09:33:23;100375.84;;;14.36;38.57
71151;BME280;59071;42.138;24.768;2024-02-16T09:35:52;100372.19;;;14.69;38.36
71151;BME280;59071;42.138;24.768;2024-02-16T09:38:18;100370.44;;;15.13;37.53
71151;BME280;59071;42.138;24.768;2024-02-16T09:40:44;100370.50;;;15.07;37.63
71151;BME280;59071;42.138;24.768;2024-02-16T09:43:09;100366.34;;;15.36;36.29
71151;BME280;59071;42.138;24.768;2024-02-16T09:45:35;100368.81;;;15.37;36.62
71151;BME280;59071;42.138;24.768;2024-02-16T09:48:01;100369.50;;;15.51;36.04
71151;BME280;59071;42.138;24.768;2024-02-16T09:50:27;100366.44;;;15.91;35.96
71151;BME280;59071;42.138;24.768;2024-02-16T09:52:56;100361.16;;;15.85;35.73
71151;BME280;59071;42.138;24.768;2024-02-16T09:55:21;100363.28;;;15.57;35.66
71151;BME280;59071;42.138;24.768;2024-02-16T09:57:58;100351.78;;;15.75;36.48
71151;BME280;59071;42.138;24.768;2024-02-16T10:00:24;100356.13;;;15.70;35.46
71151;BME280;59071;42.138;24.768;2024-02-16T10:02:49;100348.13;;;15.88;35.38
71151;BME280;59071;42.138;24.768;2024-02-16T10:05:17;100349.31;;;15.74;35.62
71151;BME280;59071;42.138;24.768;2024-02-16T10:07:43;100340.22;;;15.75;34.92
71151;BME280;59071;42.138;24.768;2024-02-16T10:10:22;100336.69;;;15.74;34.67
71151;BME280;59071;42.138;24.768;2024-02-16T10:12:47;100331.19;;;16.06;34.82
71151;BME280;59071;42.138;24.768;2024-02-16T10:15:19;100317.56;;;16.38;33.93
71151;BME280;59071;42.138;24.768;2024-02-16T10:17:46;100319.38;;;16.68;32.59
71151;BME280;59071;42.138;24.768;2024-02-16T10:20:21;100318.28;;;16.75;32.57
71151;BME280;59071;42.138;24.768;2024-02-16T10:22:47;100322.31;;;17.08;32.30
71151;BME280;59071;42.138;24.768;2024-02-16T10:25:12;100311.84;;;16.76;32.63
71151;BME280;59071;42.138;24.768;2024-02-16T10:27:38;100310.16;;;16.33;32.74
71151;BME280;59071;42.138;24.768;2024-02-16T10:30:07;100312.38;;;16.55;32.35
71151;BME280;59071;42.138;24.768;2024-02-16T10:32:36;100312.00;;;16.51;32.98
71151;BME280;59071;42.138;24.768;2024-02-16T10:35:05;100302.13;;;16.33;33.55
71151;BME280;59071;42.138;24.768;2024-02-16T10:37:32;100314.94;;;16.61;33.12
71151;BME280;59071;42.138;24.768;2024-02-16T10:39:58;100310.13;;;16.94;32.03
71151;BME280;59071;42.138;24.768;2024-02-16T10:42:27;100307.38;;;16.70;33.08
71151;BME280;59071;42.138;24.768;2024-02-16T10:44:53;100300.91;;;16.48;32.99
71151;BME280;59071;42.138;24.768;2024-02-16T10:47:18;100303.78;;;16.16;33.34
71151;BME280;59071;42.138;24.768;2024-02-16T10:49:44;100300.22;;;15.67;34.33
71151;BME280;59071;42.138;24.768;2024-02-16T10:52:10;100291.06;;;16.41;33.36
71151;BME280;59071;42.138;24.768;2024-02-16T10:54:38;100296.44;;;16.11;33.89
71151;BME280;59071;42.138;24.768;2024-02-16T10:57:08;100299.06;;;15.81;33.69
71151;BME280;59071;42.138;24.768;2024-02-16T10:59:42;100285.50;;;15.94;34.50
71151;BME280;59071;42.138;24.768;2024-02-16T11:02:10;100293.22;;;16.02;33.24
71151;BME280;59071;42.138;24.768;2024-02-16T11:04:39;100287.38;;;15.75;34.01
71151;BME280;59071;42.138;24.768;2024-02-16T11:07:12;100280.56;;;15.73;34.13
71151;BME280;59071;42.138;24.768;2024-02-16T11:09:39;100281.88;;;16.19;33.23
71151;BME280;59071;42.138;24.768;2024-02-16T11:12:06;100284.78;;;16.17;33.53
71151;BME280;59071;42.138;24.768;2024-02-16T11:14:37;100274.81;;;16.36;33.31
71151;BME280;59071;42.138;24.768;2024-02-16T11:17:20;100280.03;;;16.01;33.53
71151;BME280;59071;42.138;24.768;2024-02-16T11:19:46;100267.72;;;16.12;33.03
71151;BME280;59071;42.138;24.768;2024-02-16T11:22:17;100262.75;;;16.27;33.16
71151;BME280;59071;42.138;24.768;2024-02-16T11:24:48;100264.47;;;16.52;33.00
71151;BME280;59071;42.138;24.768;2024-02-16T11:27:15;100267.84;;;16.47;33.81
71151;BME280;59071;42.138;24.768;2024-02-16T11:29:44;100267.06;;;16.58;33.43
71151;BME280;59071;42.138;24.768;2024-02-16T11:32:10;100266.31;;;16.39;33.63
71151;BME280;59071;42.138;24.768;2024-02-16T11:34:35;100264.44;;;16.82;33.28
71151;BME280;59071;42.138;24.768;2024-02-16T11:37:03;100257.19;;;16.83;33.05
71151;BME280;59071;42.138;24.768;2024-02-16T11:39:30;100254.94;;;16.79;33.01
71151;BME280;59071;42.138;24.768;2024-02-16T11:44:27;100256.63;;;16.50;33.19
71151;BME280;59071;42.138;24.768;2024-02-16T11:46:54;100265.16;;;17.36;32.39
71151;BME280;59071;42.138;24.768;2024-02-16T11:49:20;100253.13;;;17.27;31.87
71151;BME280;59071;42.138;24.768;2024-02-16T11:51:47;100257.41;;;17.28;31.92
71151;BME280;59071;42.138;24.768;2024-02-16T11:54:12;100250.19;;;17.29;31.69
71151;BME280;59071;42.138;24.768;2024-02-16T11:56:38;100250.25;;;17.46;31.24
71151;BME280;59071;42.138;24.768;2024-02-16T11:59:06;100254.75;;;17.05;31.63
71151;BME280;59071;42.138;24.768;2024-02-16T12:01:31;100253.78;;;16.75;32.68
71151;BME280;59071;42.138;24.768;2024-02-16T12:03:59;100244.63;;;16.65;32.94
71151;BME280;59071;42.138;24.768;2024-02-16T12:06:24;100250.22;;;16.51;33.50
71151;BME280;59071;42.138;24.768;2024-02-16T12:08:51;100242.28;;;16.56;33.65
71151;BME280;59071;42.138;24.768;2024-02-16T12:11:19;100242.88;;;16.58;33.21
71151;BME280;59071;42.138;24.768;2024-02-16T12:13:45;100243.88;;;17.11;32.85
71151;BME280;59071;42.138;24.768;2024-02-16T12:16:10;100241.66;;;16.96;32.86
71151;BME280;59071;42.138;24.768;2024-02-16T12:18:36;100235.00;;;16.87;32.83
71151;BME280;59071;42.138;24.768;2024-02-16T12:21:06;100228.66;;;16.70;32.93
71151;BME280;59071;42.138;24.768;2024-02-16T12:23:32;100230.31;;;16.94;32.85
71151;BME280;59071;42.138;24.768;2024-02-16T12:25:59;100232.53;;;17.21;31.87
71151;BME280;59071;42.138;24.768;2024-02-16T12:28:26;100228.69;;;16.93;32.34
71151;BME280;59071;42.138;24.768;2024-02-16T12:30:57;100222.75;;;16.49;32.80
71151;BME280;59071;42.138;24.768;2024-02-16T12:33:23;100227.47;;;16.23;33.63
71151;BME280;59071;42.138;24.768;2024-02-16T12:35:49;100219.59;;;16.52;33.31
71151;BME280;59071;42.138;24.768;2024-02-16T12:38:14;100231.88;;;15.88;34.02
71151;BME280;59071;42.138;24.768;2024-02-16T12:40:42;100224.72;;;16.00;34.22
71151;BME280;59071;42.138;24.768;2024-02-16T12:43:08;100228.38;;;16.06;33.53